createdAt,value
2018-04-12T00:00:05.196Z,945.86
2018-04-12T00:15:05.307Z,946.24
2018-04-12T00:30:05.116Z,945.83
2018-04-12T00:45:04.579Z,946.54
2018-04-12T01:00:04.986Z,946.4
2018-04-12T01:15:04.899Z,946.59
2018-04-12T01:30:05.106Z,946.43
2018-04-12T01:45:05.301Z,946.37
2018-04-12T02:00:05.083Z,946.43
2018-04-12T02:15:04.411Z,939.7
2018-04-12T02:30:05.362Z,940.45
2018-04-12T02:45:04.819Z,940.29
2018-04-12T03:00:05.195Z,940.8
2018-04-12T03:15:05.293Z,939.94
2018-04-12T03:30:05.349Z,940.34
2018-04-12T03:45:05.777Z,940.07
2018-04-12T04:00:04.674Z,940.72
2018-04-12T04:15:04.671Z,940.67
2018-04-12T04:30:04.679Z,940.67
2018-04-12T04:45:04.669Z,940.94
2018-04-12T05:00:05.662Z,940.8
2018-04-12T05:15:05.455Z,940.64
2018-04-12T05:30:04.640Z,947.7
2018-04-12T05:45:04.560Z,947.35
2018-04-12T06:00:04.973Z,944.79
2018-04-12T06:15:04.408Z,944.14
2018-04-12T06:30:05.095Z,943.43
2018-04-12T06:45:05.080Z,942.43
2018-04-12T07:00:04.624Z,948.4
2018-04-12T07:15:04.546Z,947.58
2018-04-12T07:30:05.108Z,944.31
2018-04-12T07:45:05.032Z,945.16
2018-04-12T08:00:04.981Z,947.7
2018-04-12T08:15:04.923Z,949.09
2018-04-12T08:30:04.625Z,943.39
2018-04-12T08:45:05.075Z,944.91
2018-04-12T09:00:04.491Z,945.55
2018-04-12T09:15:04.411Z,949.42
2018-04-12T09:30:05.004Z,949.83
2018-04-12T09:45:04.931Z,943.85
2018-04-12T10:00:10.069Z,943.3
2018-04-12T10:15:04.504Z,943.19
2018-04-12T10:30:05.071Z,943.41
2018-04-12T10:45:05.000Z,944.39
2018-04-12T11:00:04.897Z,944.61
2018-04-12T11:15:05.275Z,944.09
2018-04-12T11:30:04.397Z,944.29
2018-04-12T11:45:04.819Z,944.59
2018-04-12T12:00:05.306Z,945.88
2018-04-12T12:15:04.668Z,946.18
2018-04-12T12:30:04.378Z,945.9
2018-04-12T12:45:04.804Z,945.3
2018-04-12T13:00:04.656Z,944.5
2018-04-12T13:15:04.590Z,944.23
2018-04-12T13:30:04.752Z,945.3
2018-04-12T13:45:04.731Z,944.67
2018-04-12T14:00:05.123Z,945.49
2018-04-12T14:15:04.624Z,946.26
2018-04-12T14:30:04.772Z,945.46
2018-04-12T14:45:04.719Z,946.31
2018-04-12T15:00:05.190Z,947
2018-04-12T15:15:05.117Z,947
2018-04-12T15:30:04.833Z,946.7
2018-04-12T15:45:05.308Z,946.7
2018-04-12T16:00:04.709Z,946.97
2018-04-12T16:15:04.604Z,947.47
2018-04-12T16:30:05.505Z,947.96
2018-04-12T16:45:04.987Z,948.34
2018-04-12T17:00:05.211Z,948.54
2018-04-12T17:15:05.544Z,949
2018-04-12T17:30:05.238Z,949.28
2018-04-12T17:45:05.152Z,942.56
2018-04-12T18:00:05.464Z,942.95
2018-04-12T18:15:05.249Z,943.95
2018-04-12T18:30:04.524Z,944.47
2018-04-12T18:45:05.260Z,945.15
2018-04-12T19:00:05.336Z,945.23
2018-04-12T19:15:05.473Z,945.69
2018-04-12T19:30:04.848Z,946.32
2018-04-12T19:45:05.279Z,946.62
2018-04-12T20:00:05.724Z,946.97
2018-04-12T20:15:05.439Z,947.19
2018-04-12T20:30:04.605Z,947.13
2018-04-12T20:45:05.320Z,947.35
2018-04-12T21:00:05.425Z,947.3
2018-04-12T21:15:04.776Z,948.11
2018-04-12T21:30:04.965Z,948.36
2018-04-12T21:45:05.375Z,948.3
2018-04-12T22:00:05.339Z,948.63
2018-04-12T22:15:05.435Z,948.74
2018-04-12T22:30:04.775Z,948.98
2018-04-12T22:45:05.479Z,949.09
2018-04-12T23:00:04.943Z,949.39
2018-04-12T23:15:04.858Z,949.12
2018-04-12T23:30:04.994Z,949.69
2018-04-12T23:45:05.375Z,949.83
